createdAt,value
2018-08-03T00:06:17.533Z,78.87
2018-08-03T00:12:02.214Z,79.05
2018-08-03T00:14:35.023Z,79.48
2018-08-03T00:17:09.592Z,79.13
2018-08-03T00:19:40.151Z,79.23
2018-08-03T00:22:13.138Z,79.54
2018-08-03T00:24:45.058Z,79.38
2018-08-03T00:30:26.490Z,79.67
2018-08-03T00:32:57.003Z,80.27
2018-08-03T00:35:28.014Z,80.16
2018-08-03T00:37:58.446Z,80.26
2018-08-03T00:40:28.411Z,80.44
2018-08-03T00:42:58.930Z,80.17
2018-08-03T00:45:29.832Z,80.26
2018-08-03T00:48:00.098Z,80.69
2018-08-03T00:50:31.815Z,80.94
2018-08-03T00:53:03.258Z,80.73
2018-08-03T00:55:33.638Z,80.77
2018-08-03T00:58:04.326Z,80.99
2018-08-03T01:00:36.620Z,80.66
2018-08-03T01:03:43.996Z,80.72
2018-08-03T01:06:15.304Z,80.96
2018-08-03T01:08:45.945Z,80.87
2018-08-03T01:11:18.219Z,81.14
2018-08-03T01:13:48.235Z,81.49
2018-08-03T01:16:26.533Z,80.99
2018-08-03T01:19:26.459Z,81.84
2018-08-03T01:21:58.591Z,81.75
2018-08-03T01:24:29.161Z,82.38
2018-08-03T01:26:59.430Z,82.59
2018-08-03T01:29:33.563Z,82.09
2018-08-03T01:32:07.965Z,82.22
2018-08-03T01:34:42.761Z,82.29
2018-08-03T01:37:13.232Z,81.40
2018-08-03T01:39:44.061Z,81.73
2018-08-03T01:42:14.336Z,82.49
2018-08-03T01:44:45.097Z,82.84
2018-08-03T01:49:56.192Z,82.94
2018-08-03T01:52:26.488Z,83.09
2018-08-03T01:54:59.897Z,83.86
2018-08-03T01:57:31.224Z,83.88
2018-08-03T02:00:01.983Z,84.26
2018-08-03T02:02:32.262Z,84.22
2018-08-03T02:05:06.836Z,84.54
2018-08-03T02:07:37.647Z,84.31
2018-08-03T02:10:07.865Z,84.41
2018-08-03T02:12:38.499Z,85.29
2018-08-03T02:18:04.029Z,85.64
2018-08-03T02:20:34.273Z,85.26
2018-08-03T02:23:04.474Z,85.30
2018-08-03T02:25:35.624Z,85.92
2018-08-03T02:28:05.959Z,85.71
2018-08-03T02:30:36.593Z,85.74
2018-08-03T02:33:06.929Z,85.41
2018-08-03T02:35:37.120Z,85.53
2018-08-03T02:38:08.016Z,85.04
2018-08-03T02:40:38.191Z,84.85
2018-08-03T02:43:10.711Z,85.01
2018-08-03T02:45:40.967Z,84.91
2018-08-03T02:48:12.503Z,84.80
2018-08-03T02:50:43.795Z,85.09
2018-08-03T02:53:16.178Z,85.31
2018-08-03T02:55:46.492Z,85.47
2018-08-03T02:58:17.024Z,85.57
2018-08-03T03:00:47.109Z,85.52
2018-08-03T03:03:19.544Z,86.34
2018-08-03T03:05:49.840Z,86.26
2018-08-03T03:08:20.125Z,86.48
2018-08-03T03:10:50.192Z,85.87
2018-08-03T03:13:23.954Z,85.68
2018-08-03T03:15:54.053Z,85.67
2018-08-03T03:18:24.334Z,86.42
2018-08-03T03:20:55.149Z,86.35
2018-08-03T03:26:20.906Z,86.86
2018-08-03T03:31:44.850Z,86.28
2018-08-03T03:34:17.024Z,86.56
2018-08-03T03:36:47.472Z,86.52
2018-08-03T03:39:17.784Z,87.29
2018-08-03T03:41:47.891Z,86.98
2018-08-03T03:44:41.074Z,87.01
2018-08-03T03:47:12.705Z,87.61
2018-08-03T03:49:45.220Z,87.94
2018-08-03T03:52:23.290Z,87.76
2018-08-03T03:54:54.597Z,87.27
2018-08-03T03:57:25.709Z,87.37
2018-08-03T03:59:58.613Z,86.91
2018-08-03T04:02:28.953Z,86.41
2018-08-03T04:09:41.444Z,86.51
2018-08-03T04:12:11.620Z,86.80
2018-08-03T04:14:42.237Z,87.09
2018-08-03T04:17:12.682Z,86.82
2018-08-03T04:19:43.293Z,86.58
2018-08-03T04:22:21.302Z,86.54
2018-08-03T04:24:55.092Z,86.64
2018-08-03T04:27:40.766Z,86.67
2018-08-03T04:30:10.989Z,86.04
2018-08-03T04:32:41.137Z,85.49
2018-08-03T04:35:12.964Z,85.66
2018-08-03T04:37:44.058Z,85.66
2018-08-03T04:40:14.743Z,85.74
2018-08-03T04:42:45.184Z,85.75
2018-08-03T04:45:18.080Z,85.94
2018-08-03T04:47:48.930Z,86.37
2018-08-03T04:50:45.132Z,85.45
2018-08-03T04:53:21.813Z,85.53
2018-08-03T04:55:55.502Z,85.74
2018-08-03T04:58:30.084Z,85.62
2018-08-03T05:01:03.104Z,85.23
2018-08-03T05:03:42.896Z,85.10
2018-08-03T05:06:16.976Z,84.92
2018-08-03T05:08:50.111Z,84.28
2018-08-03T05:11:34.156Z,84.54
2018-08-03T05:14:45.233Z,84.33
2018-08-03T05:17:19.717Z,83.64
2018-08-03T05:19:52.406Z,83.30
2018-08-03T05:28:06.000Z,82.39
2018-08-03T05:30:49.259Z,82.27
2018-08-03T05:33:29.294Z,82.40
2018-08-03T05:36:04.180Z,82.44
2018-08-03T05:38:44.271Z,81.82
2018-08-03T05:41:20.316Z,81.83
2018-08-03T05:46:41.852Z,81.07
2018-08-03T05:49:14.095Z,80.85
2018-08-03T05:51:47.217Z,80.34
2018-08-03T05:54:17.668Z,80.58
2018-08-03T05:56:48.024Z,79.56
2018-08-03T05:59:20.204Z,79.86
2018-08-03T06:01:51.084Z,79.42
2018-08-03T06:04:22.085Z,79.34
2018-08-03T06:06:52.428Z,79.26
2018-08-03T06:09:22.420Z,78.66
2018-08-03T06:11:53.179Z,77.98
2018-08-03T06:14:24.810Z,77.73
2018-08-03T06:16:55.619Z,77.73
2018-08-03T06:19:43.290Z,76.82
2018-08-03T06:22:13.827Z,76.48
2018-08-03T06:24:43.924Z,76.10
2018-08-03T06:27:21.564Z,75.77
2018-08-03T06:29:52.775Z,74.15
2018-08-03T06:32:33.659Z,73.32
2018-08-03T06:35:05.133Z,73.22
2018-08-03T06:42:59.553Z,70.97
2018-08-03T06:45:31.075Z,70.42
2018-08-03T06:48:02.398Z,70.75
2018-08-03T06:50:41.105Z,70.04
2018-08-03T06:53:21.342Z,68.99
2018-08-03T06:55:55.930Z,68.24
2018-08-03T06:58:35.678Z,67.72
2018-08-03T07:01:19.720Z,67.41
2018-08-03T07:03:57.609Z,66.60
2018-08-03T07:06:35.369Z,66.14
2018-08-03T07:09:21.149Z,64.56
2018-08-03T07:12:02.902Z,64.20
2018-08-03T07:14:35.792Z,63.75
2018-08-03T07:17:17.044Z,62.86
2018-08-03T07:19:53.962Z,62.88
2018-08-03T07:22:29.421Z,62.14
2018-08-03T07:25:04.037Z,61.84
2018-08-03T07:27:45.613Z,62.52
2018-08-03T07:30:28.496Z,62.41
2018-08-03T07:35:50.911Z,62.05
2018-08-03T07:38:29.369Z,61.30
2018-08-03T07:43:52.701Z,60.65
2018-08-03T07:46:28.368Z,59.23
2018-08-03T07:49:07.568Z,58.98
2018-08-03T07:54:36.032Z,59.28
2018-08-03T07:59:56.494Z,57.42
2018-08-03T08:02:41.159Z,58.29
2018-08-03T08:05:16.368Z,57.72
2018-08-03T08:07:46.584Z,56.42
2018-08-03T08:10:42.250Z,55.47
2018-08-03T08:13:20.966Z,55.68
2018-08-03T08:16:07.968Z,54.94
2018-08-03T08:18:44.206Z,54.79
2018-08-03T08:21:15.396Z,54.14
2018-08-03T08:23:53.232Z,52.04
2018-08-03T08:26:33.221Z,51.63
2018-08-03T08:29:18.919Z,50.47
2018-08-03T08:41:38.569Z,41.37
2018-08-03T08:46:57.393Z,38.58
2018-08-03T08:55:44.408Z,38.02
2018-08-03T08:58:30.676Z,37.43
2018-08-03T09:01:15.167Z,36.22
2018-08-03T09:04:03.209Z,36.21
2018-08-03T09:06:57.531Z,37.22
2018-08-03T09:09:29.938Z,35.20
2018-08-03T09:12:02.933Z,34.37
2018-08-03T09:14:43.290Z,34.25
2018-08-03T09:20:27.524Z,34.13
2018-08-03T09:23:05.643Z,34.98
2018-08-03T09:34:38.996Z,32.08
2018-08-03T09:37:15.980Z,30.71
2018-08-03T09:45:58.369Z,31.47
2018-08-03T09:51:31.256Z,29.17
2018-08-03T09:54:01.726Z,29.38
2018-08-03T09:56:40.510Z,28.71
2018-08-03T09:59:31.376Z,29.11
2018-08-03T10:02:02.032Z,29.52
2018-08-03T10:04:42.304Z,29.54
2018-08-03T10:10:07.161Z,31.55
2018-08-03T10:12:41.409Z,28.90
2018-08-03T10:15:23.598Z,29.40
2018-08-03T10:20:56.508Z,32.26
2018-08-03T10:23:29.146Z,31.75
2018-08-03T10:25:59.664Z,33.17
2018-08-03T10:28:29.745Z,35.12
2018-08-03T10:31:00.506Z,33.11
2018-08-03T10:33:34.722Z,33.60
2018-08-03T10:36:14.528Z,33.87
2018-08-03T10:38:48.520Z,35.03
2018-08-03T10:41:24.014Z,35.44
2018-08-03T10:43:56.477Z,36.57
2018-08-03T10:46:26.496Z,35.51
2018-08-03T10:48:56.576Z,35.32
2018-08-03T10:51:44.236Z,36.75
2018-08-03T10:54:18.277Z,35.80
2018-08-03T10:56:58.005Z,35.53
2018-08-03T10:59:28.233Z,36.49
2018-08-03T11:01:59.026Z,36.73
2018-08-03T11:04:29.957Z,36.59
2018-08-03T11:07:00.686Z,35.83
2018-08-03T11:09:38.318Z,37.26
2018-08-03T11:12:20.786Z,37.26
2018-08-03T11:15:01.611Z,36.02
2018-08-03T11:20:27.331Z,33.66
2018-08-03T11:23:03.735Z,33.17
2018-08-03T11:25:41.869Z,33.88
2018-08-03T11:28:53.316Z,35.19
2018-08-03T11:31:35.876Z,34.21
2018-08-03T11:34:18.017Z,34.44
2018-08-03T11:36:48.662Z,33.47
2018-08-03T11:39:21.424Z,32.92
2018-08-03T11:41:51.505Z,32.80
2018-08-03T11:44:31.419Z,32.83
2018-08-03T11:47:18.587Z,34.03
2018-08-03T11:52:41.842Z,32.37
2018-08-03T11:55:13.409Z,31.43
2018-08-03T11:57:45.919Z,31.37
2018-08-03T12:09:57.715Z,33.21
2018-08-03T12:12:29.171Z,32.52
2018-08-03T12:15:01.218Z,32.85
2018-08-03T12:20:50.925Z,34.74
2018-08-03T12:23:33.291Z,34.36
2018-08-03T12:26:11.643Z,32.43
2018-08-03T12:28:53.536Z,33.28
2018-08-03T12:31:38.270Z,33.23
2018-08-03T12:34:16.570Z,33.07
2018-08-03T12:36:57.396Z,33.67
2018-08-03T12:39:27.336Z,32.69
2018-08-03T12:42:00.082Z,33.15
2018-08-03T12:44:30.693Z,31.06
2018-08-03T12:47:03.491Z,30.96
2018-08-03T12:49:34.322Z,31.89
2018-08-03T12:52:06.892Z,30.50
2018-08-03T12:54:45.742Z,29.28
2018-08-03T12:57:19.680Z,30.42
2018-08-03T12:59:51.483Z,31.40
2018-08-03T13:02:25.992Z,31.57
2018-08-03T13:05:00.011Z,32.70
2018-08-03T13:07:31.107Z,33.07
2018-08-03T13:10:02.936Z,31.35
2018-08-03T13:13:03.372Z,31.59
2018-08-03T13:15:36.122Z,31.40
2018-08-03T13:18:19.387Z,31.66
2018-08-03T13:20:52.865Z,30.64
2018-08-03T13:23:24.445Z,27.67
2018-08-03T13:28:59.020Z,24.82
2018-08-03T13:31:36.949Z,22.38
2018-08-03T13:34:17.804Z,23.37
2018-08-03T13:36:59.726Z,24.74
2018-08-03T13:39:44.473Z,26.69
2018-08-03T13:42:20.128Z,28.16
2018-08-03T13:44:57.794Z,29.61
2018-08-03T13:47:28.460Z,31.31
2018-08-03T13:50:08.145Z,25.91
2018-08-03T13:52:50.680Z,22.52
2018-08-03T13:55:28.975Z,18.90
2018-08-03T13:58:06.441Z,17.75
2018-08-03T14:03:52.189Z,17.19
2018-08-03T14:06:39.444Z,17.30
2018-08-03T14:09:30.339Z,17.12
2018-08-03T14:15:29.583Z,15.82
2018-08-03T14:18:02.211Z,16.32
2018-08-03T14:20:32.378Z,16.76
2018-08-03T14:23:16.393Z,15.32
2018-08-03T14:25:49.924Z,14.86
2018-08-03T14:28:23.420Z,15.91
2018-08-03T14:31:01.803Z,15.30
2018-08-03T14:33:42.781Z,16.34
2018-08-03T14:36:20.684Z,15.81
2018-08-03T14:39:13.360Z,16.07
2018-08-03T14:44:30.905Z,16.52
2018-08-03T14:53:02.980Z,19.26
2018-08-03T14:58:36.073Z,16.76
2018-08-03T15:04:27.862Z,16.74
2018-08-03T15:07:01.933Z,16.35
2018-08-03T15:18:35.090Z,17.44
2018-08-03T15:21:16.514Z,17.64
2018-08-03T15:24:04.735Z,17.84
2018-08-03T15:27:02.618Z,18.42
2018-08-03T15:41:12.766Z,17.73
2018-08-03T15:43:50.630Z,18.51
2018-08-03T15:49:37.230Z,18.91
2018-08-03T15:52:27.422Z,19.52
2018-08-03T15:57:48.064Z,18.41
2018-08-03T16:00:25.303Z,19.40
2018-08-03T16:08:54.198Z,21.94
2018-08-03T16:20:30.672Z,26.81
2018-08-03T16:23:24.764Z,27.08
2018-08-03T16:29:21.096Z,28.87
2018-08-03T16:43:52.305Z,29.10
2018-08-03T16:46:40.152Z,30.09
2018-08-03T16:49:28.184Z,29.61
2018-08-03T16:52:02.834Z,29.10
2018-08-03T16:54:37.462Z,29.78
2018-08-03T16:57:12.278Z,29.83
2018-08-03T16:59:42.828Z,29.36
2018-08-03T17:02:13.737Z,29.19
2018-08-03T17:04:45.717Z,29.46
2018-08-03T17:07:20.451Z,30.03
2018-08-03T17:09:50.454Z,30.51
2018-08-03T17:12:25.391Z,31.55
2018-08-03T17:14:58.224Z,31.23
2018-08-03T17:17:29.210Z,30.53
2018-08-03T17:19:59.740Z,31.55
2018-08-03T17:22:31.361Z,32.11
2018-08-03T17:25:01.519Z,32.85
2018-08-03T17:27:34.865Z,33.00
2018-08-03T17:30:05.954Z,33.32
2018-08-03T17:32:36.613Z,33.96
2018-08-03T17:35:06.533Z,34.70
2018-08-03T17:37:37.142Z,34.48
2018-08-03T17:40:07.733Z,34.11
2018-08-03T17:42:38.209Z,34.36
2018-08-03T17:45:08.285Z,34.54
2018-08-03T17:47:39.458Z,34.91
2018-08-03T17:50:09.486Z,34.49
2018-08-03T17:52:39.456Z,33.48
2018-08-03T17:55:09.411Z,34.73
2018-08-03T17:57:40.539Z,34.90
2018-08-03T18:00:10.539Z,35.96
2018-08-03T18:02:40.351Z,33.80
2018-08-03T18:05:10.440Z,34.93
2018-08-03T18:09:23.559Z,34.90
2018-08-03T18:11:53.580Z,36.41
2018-08-03T18:14:23.683Z,38.78
2018-08-03T18:16:54.616Z,39.48
2018-08-03T18:19:25.262Z,39.08
2018-08-03T18:21:55.392Z,40.16
2018-08-03T18:24:25.305Z,41.45
2018-08-03T18:26:57.387Z,42.06
2018-08-03T18:29:28.291Z,42.55
2018-08-03T18:32:01.503Z,43.07
2018-08-03T18:34:40.732Z,44.03
2018-08-03T18:37:11.277Z,44.27
2018-08-03T18:39:41.557Z,43.72
2018-08-03T18:42:11.715Z,43.83
2018-08-03T18:44:43.995Z,43.98
2018-08-03T18:47:15.904Z,43.57
2018-08-03T18:49:46.225Z,43.75
2018-08-03T18:52:16.581Z,44.65
2018-08-03T18:54:49.963Z,44.76
2018-08-03T18:57:20.498Z,45.89
2018-08-03T18:59:51.628Z,46.53
2018-08-03T19:02:23.020Z,46.26
2018-08-03T19:04:53.498Z,47.09
2018-08-03T19:07:23.624Z,47.75
2018-08-03T19:10:00.670Z,47.41
2018-08-03T19:12:30.923Z,47.69
2018-08-03T19:15:01.962Z,48.61
2018-08-03T19:17:32.090Z,48.66
2018-08-03T19:20:02.515Z,49.89
2018-08-03T19:22:32.979Z,50.52
2018-08-03T19:25:03.468Z,51.63
2018-08-03T19:27:33.385Z,51.68
2018-08-03T19:30:03.405Z,51.55
2018-08-03T19:32:34.671Z,52.01
2018-08-03T19:35:04.901Z,52.21
2018-08-03T19:37:35.009Z,52.19
2018-08-03T19:40:05.450Z,51.66
2018-08-03T19:42:35.453Z,51.73
2018-08-03T19:45:05.808Z,52.51
2018-08-03T19:47:36.039Z,52.08
2018-08-03T19:50:06.352Z,52.97
2018-08-03T19:52:36.481Z,52.87
2018-08-03T19:55:06.995Z,52.59
2018-08-03T19:57:38.397Z,53.15
2018-08-03T20:00:10.927Z,52.76
2018-08-03T20:02:41.526Z,52.89
2018-08-03T20:05:11.893Z,53.64
2018-08-03T20:07:42.260Z,53.85
2018-08-03T20:10:12.231Z,54.57
2018-08-03T20:12:42.783Z,54.62
2018-08-03T20:15:13.189Z,54.58
2018-08-03T20:17:43.389Z,54.65
2018-08-03T20:20:13.426Z,54.87
2018-08-03T20:22:43.648Z,55.42
2018-08-03T20:25:16.025Z,55.44
2018-08-03T20:27:45.913Z,55.31
2018-08-03T20:30:16.056Z,55.24
2018-08-03T20:32:45.962Z,55.54
2018-08-03T20:35:16.299Z,55.90
2018-08-03T20:37:46.254Z,56.27
2018-08-03T20:40:16.278Z,57.31
2018-08-03T20:42:46.326Z,56.88
2018-08-03T20:45:16.557Z,56.96
2018-08-03T20:47:46.456Z,57.87
2018-08-03T20:50:16.504Z,57.27
2018-08-03T20:52:46.936Z,58.35
2018-08-03T20:55:17.924Z,58.96
2018-08-03T20:57:49.244Z,58.84
2018-08-03T21:00:20.642Z,59.57
2018-08-03T21:02:52.239Z,60.16
2018-08-03T21:05:22.429Z,60.29
2018-08-03T21:07:52.663Z,59.90
2018-08-03T21:10:27.568Z,60.15
2018-08-03T21:12:57.585Z,60.38
2018-08-03T21:15:27.503Z,60.71
2018-08-03T21:17:58.642Z,61.44
2018-08-03T21:20:28.539Z,61.42
2018-08-03T21:22:58.463Z,60.99
2018-08-03T21:25:28.327Z,61.54
2018-08-03T21:27:58.451Z,61.79
2018-08-03T21:30:28.267Z,62.62
2018-08-03T21:32:58.444Z,62.14
2018-08-03T21:35:28.430Z,62.74
2018-08-03T21:37:59.318Z,62.62
2018-08-03T21:40:30.139Z,62.67
2018-08-03T21:43:00.437Z,63.13
2018-08-03T21:45:35.375Z,62.99
2018-08-03T21:48:05.384Z,63.62
2018-08-03T21:50:35.393Z,64.21
2018-08-03T21:53:06.236Z,64.15
2018-08-03T21:55:36.441Z,64.05
2018-08-03T21:58:06.397Z,64.23
2018-08-03T22:00:36.425Z,65.07
2018-08-03T22:03:07.588Z,65.18
2018-08-03T22:05:37.490Z,65.26
2018-08-03T22:08:08.442Z,65.46
2018-08-03T22:10:39.062Z,65.57
2018-08-03T22:13:09.762Z,65.09
2018-08-03T22:15:41.090Z,65.82
2018-08-03T22:18:13.716Z,65.73
2018-08-03T22:20:44.074Z,65.92
2018-08-03T22:23:14.008Z,66.02
2018-08-03T22:25:44.625Z,66.55
2018-08-03T22:28:20.606Z,66.90
2018-08-03T22:30:51.147Z,67.37
2018-08-03T22:33:21.454Z,66.87
2018-08-03T22:35:51.796Z,66.46
2018-08-03T22:38:21.886Z,67.03
2018-08-03T22:40:52.623Z,66.53
2018-08-03T22:43:23.150Z,66.87
2018-08-03T22:45:53.070Z,66.64
2018-08-03T22:48:24.321Z,66.60
2018-08-03T22:50:54.194Z,66.02
2018-08-03T22:53:24.161Z,66.14
2018-08-03T22:55:54.159Z,65.85
2018-08-03T22:58:24.406Z,66.13
2018-08-03T23:00:56.316Z,66.48
2018-08-03T23:03:26.238Z,67.44
2018-08-03T23:05:56.848Z,66.91
2018-08-03T23:08:26.815Z,66.14
2018-08-03T23:10:56.744Z,66.19
2018-08-03T23:13:28.613Z,66.26
2018-08-03T23:15:58.532Z,66.13
2018-08-03T23:18:28.747Z,66.19
2018-08-03T23:20:58.616Z,66.54
2018-08-03T23:23:28.671Z,66.09
2018-08-03T23:25:58.688Z,66.86
2018-08-03T23:28:29.971Z,67.06
2018-08-03T23:30:59.953Z,67.48
2018-08-03T23:33:29.849Z,67.27
2018-08-03T23:35:59.695Z,66.66
2018-08-03T23:38:29.949Z,66.93
2018-08-03T23:40:59.858Z,67.37
2018-08-03T23:43:29.723Z,68.05
2018-08-03T23:45:59.614Z,68.14
2018-08-03T23:48:37.045Z,68.23
2018-08-03T23:51:06.896Z,68.25
2018-08-03T23:53:37.137Z,68.17
2018-08-03T23:56:07.200Z,68.19
2018-08-03T23:58:39.765Z,68.02
